createdAt,value
2022-10-14T00:00:08.860Z,94790.81
2022-10-14T00:02:35.579Z,94783.50
2022-10-14T00:05:02.326Z,94741.22
2022-10-14T00:07:33.205Z,94813.28
2022-10-14T00:09:59.871Z,94790.00
2022-10-14T00:12:26.559Z,94780.13
2022-10-14T00:14:53.250Z,94783.34
2022-10-14T00:17:20.265Z,94796.16
2022-10-14T00:19:47.138Z,94806.00
2022-10-14T00:22:14.143Z,94784.97
2022-10-14T00:24:42.939Z,94800.47
2022-10-14T00:27:09.697Z,94787.66
2022-10-14T00:29:36.506Z,94773.81
2022-10-14T00:32:03.162Z,94814.50
2022-10-14T00:34:30.775Z,94803.28
2022-10-14T00:36:57.500Z,94776.84
2022-10-14T00:39:24.200Z,94785.03
2022-10-14T00:41:50.903Z,94774.19
2022-10-14T00:44:17.590Z,94819.59
2022-10-14T00:46:46.879Z,94777.00
2022-10-14T00:49:34.544Z,94823.97
2022-10-14T00:52:15.633Z,94794.16
2022-10-14T00:54:57.302Z,94806.09
2022-10-14T00:57:25.401Z,94766.06
2022-10-14T01:00:04.595Z,94788.69
2022-10-14T01:02:31.315Z,94748.31
2022-10-14T01:04:58.188Z,94752.88
2022-10-14T01:07:32.529Z,94807.66
2022-10-14T01:10:01.782Z,94793.63
2022-10-14T01:12:37.472Z,94807.59
2022-10-14T01:15:16.246Z,94801.09
2022-10-14T01:17:54.798Z,94798.22
2022-10-14T01:20:33.138Z,94791.31
2022-10-14T01:23:38.241Z,94792.94
2022-10-14T01:26:23.590Z,94796.41
2022-10-14T01:29:05.719Z,94788.69
2022-10-14T01:31:35.261Z,94774.72
2022-10-14T01:34:07.366Z,94790.69
2022-10-14T01:36:39.705Z,94777.38
2022-10-14T01:39:16.324Z,94790.97
2022-10-14T01:41:49.352Z,94763.78
2022-10-14T01:44:17.489Z,94735.00
2022-10-14T01:46:47.953Z,94764.50
2022-10-14T01:49:16.913Z,94778.56
2022-10-14T01:51:49.990Z,94761.88
2022-10-14T01:54:21.123Z,94775.06
2022-10-14T01:56:48.551Z,94771.28
2022-10-14T01:59:17.104Z,94726.34
2022-10-14T02:01:43.945Z,94741.09
2022-10-14T02:04:21.959Z,94768.34
2022-10-14T02:07:08.390Z,94785.50
2022-10-14T02:09:43.346Z,94755.94
2022-10-14T02:12:31.698Z,94782.22
2022-10-14T02:15:17.126Z,94764.06
2022-10-14T02:18:07.604Z,94722.91
2022-10-14T02:20:37.958Z,94738.47
2022-10-14T02:23:17.237Z,94732.56
2022-10-14T02:25:46.093Z,94737.22
2022-10-14T02:28:16.568Z,94756.25
2022-10-14T02:30:47.374Z,94692.13
2022-10-14T02:33:14.665Z,94719.50
2022-10-14T02:35:41.840Z,94737.56
2022-10-14T02:38:09.103Z,94712.88
2022-10-14T02:40:42.547Z,94746.66
2022-10-14T02:43:10.953Z,94743.56
2022-10-14T02:45:39.012Z,94725.88
2022-10-14T02:48:06.187Z,94705.50
2022-10-14T02:50:33.205Z,94746.75
2022-10-14T02:52:59.964Z,94748.13
2022-10-14T02:55:26.996Z,94705.25
2022-10-14T02:57:53.721Z,94722.44
2022-10-14T03:00:20.691Z,94682.72
2022-10-14T03:02:47.348Z,94743.22
2022-10-14T03:05:14.139Z,94692.69
2022-10-14T03:07:40.888Z,94701.97
2022-10-14T03:10:07.883Z,94745.03
2022-10-14T03:12:34.557Z,94681.09
2022-10-14T03:15:01.338Z,94723.28
2022-10-14T03:17:27.994Z,94693.41
2022-10-14T03:19:54.702Z,94707.88
2022-10-14T03:22:21.694Z,94697.19
2022-10-14T03:24:50.675Z,94683.75
2022-10-14T03:27:17.385Z,94678.91
2022-10-14T03:29:44.113Z,94700.56
2022-10-14T03:32:10.789Z,94691.91
2022-10-14T03:34:37.481Z,94711.19
2022-10-14T03:37:04.200Z,94681.13
2022-10-14T03:39:30.928Z,94688.03
2022-10-14T03:42:00.235Z,94706.78
2022-10-14T03:44:26.977Z,94716.31
2022-10-14T03:46:53.721Z,94717.84
2022-10-14T03:49:20.421Z,94686.41
2022-10-14T03:51:47.078Z,94687.88
2022-10-14T03:54:13.763Z,94647.44
2022-10-14T03:56:41.464Z,94647.31
2022-10-14T03:59:08.330Z,94692.13
2022-10-14T04:01:35.079Z,94679.16
2022-10-14T04:04:01.868Z,94696.38
2022-10-14T04:06:28.576Z,94664.22
2022-10-14T04:08:55.307Z,94631.84
2022-10-14T04:11:22.039Z,94689.38
2022-10-14T04:13:48.820Z,94668.41
2022-10-14T04:16:16.584Z,94692.09
2022-10-14T04:18:43.227Z,94677.41
2022-10-14T04:21:12.108Z,94685.03
2022-10-14T04:23:38.960Z,94697.50
2022-10-14T04:26:07.186Z,94647.09
2022-10-14T04:28:34.501Z,94672.50
2022-10-14T04:31:01.550Z,94691.84
2022-10-14T04:33:28.756Z,94700.97
2022-10-14T04:36:03.944Z,94692.44
2022-10-14T04:38:30.706Z,94672.69
2022-10-14T04:40:57.711Z,94694.81
2022-10-14T04:43:24.551Z,94672.34
2022-10-14T04:45:51.366Z,94634.59
2022-10-14T04:48:18.495Z,94662.22
2022-10-14T04:50:45.259Z,94656.94
2022-10-14T04:53:13.687Z,94631.28
2022-10-14T04:55:40.812Z,94659.16
2022-10-14T04:58:07.703Z,94634.16
2022-10-14T05:00:34.426Z,94661.81
2022-10-14T05:03:01.075Z,94669.72
2022-10-14T05:05:27.860Z,94643.59
2022-10-14T05:07:54.599Z,94631.94
2022-10-14T05:10:21.939Z,94647.44
2022-10-14T05:12:48.934Z,94635.38
2022-10-14T05:15:16.119Z,94639.19
2022-10-14T05:17:44.770Z,94615.31
2022-10-14T05:20:13.411Z,94636.38
2022-10-14T05:22:40.207Z,94630.81
2022-10-14T05:25:07.210Z,94647.91
2022-10-14T05:27:33.976Z,94631.63
2022-10-14T05:30:00.867Z,94608.78
2022-10-14T05:32:27.809Z,94603.63
2022-10-14T05:34:55.585Z,94604.44
2022-10-14T05:37:22.265Z,94628.56
2022-10-14T05:39:48.970Z,94606.56
2022-10-14T05:42:15.748Z,94611.13
2022-10-14T05:44:42.448Z,94589.91
2022-10-14T05:47:31.421Z,94628.22
2022-10-14T05:49:58.844Z,94604.69
2022-10-14T05:52:25.905Z,94622.91
2022-10-14T05:54:52.579Z,94551.97
2022-10-14T05:57:19.234Z,94564.16
2022-10-14T05:59:45.921Z,94619.75
2022-10-14T06:02:12.563Z,94616.22
2022-10-14T06:04:42.680Z,94595.72
2022-10-14T06:07:10.532Z,94560.59
2022-10-14T06:09:38.210Z,94601.66
2022-10-14T06:12:05.711Z,94590.66
2022-10-14T06:14:32.400Z,94559.44
2022-10-14T06:16:59.032Z,94548.06
2022-10-14T06:19:25.765Z,94581.28
2022-10-14T06:21:52.491Z,94584.19
2022-10-14T06:24:19.189Z,94603.53
2022-10-14T06:26:45.926Z,94555.31
2022-10-14T06:29:19.468Z,94586.09
2022-10-14T06:31:46.218Z,94588.09
2022-10-14T06:34:12.891Z,94602.06
2022-10-14T06:36:39.606Z,94593.09
2022-10-14T06:39:06.424Z,94602.44
2022-10-14T06:41:33.117Z,94579.34
2022-10-14T06:43:59.867Z,94609.75
2022-10-14T06:46:26.602Z,94579.59
2022-10-14T06:48:53.275Z,94601.72
2022-10-14T06:51:20.015Z,94590.88
2022-10-14T06:53:46.699Z,94584.47
2022-10-14T06:56:19.186Z,94604.94
2022-10-14T06:58:45.868Z,94576.56
2022-10-14T07:01:12.656Z,94601.13
2022-10-14T07:03:39.557Z,94603.69
2022-10-14T07:06:07.391Z,94590.84
2022-10-14T07:08:34.256Z,94600.28
2022-10-14T07:11:01.101Z,94567.94
2022-10-14T07:13:28.009Z,94600.75
2022-10-14T07:15:54.691Z,94567.56
2022-10-14T07:18:21.727Z,94613.22
2022-10-14T07:20:48.408Z,94636.41
2022-10-14T07:23:15.231Z,94606.66
2022-10-14T07:25:44.039Z,94605.63
2022-10-14T07:28:10.993Z,94618.53
2022-10-14T07:30:37.847Z,94625.97
2022-10-14T07:33:04.629Z,94579.16
2022-10-14T07:35:31.345Z,94586.31
2022-10-14T07:37:59.146Z,94557.88
2022-10-14T07:40:26.426Z,94572.00
2022-10-14T07:42:53.081Z,94593.00
2022-10-14T07:45:21.387Z,94588.09
2022-10-14T07:47:50.376Z,94610.47
2022-10-14T07:50:17.668Z,94592.75
2022-10-14T07:52:44.597Z,94577.59
2022-10-14T07:55:11.457Z,94615.50
2022-10-14T07:57:38.191Z,94602.28
2022-10-14T08:00:05.956Z,94624.66
2022-10-14T08:02:32.700Z,94585.22
2022-10-14T08:05:18.800Z,94619.16
2022-10-14T08:07:46.243Z,94593.47
2022-10-14T08:10:13.008Z,94615.00
2022-10-14T08:12:40.122Z,94612.53
2022-10-14T08:15:07.670Z,94606.88
2022-10-14T08:17:34.604Z,94599.56
2022-10-14T08:20:01.364Z,94598.66
2022-10-14T08:22:28.041Z,94583.66
2022-10-14T08:24:54.794Z,94638.06
2022-10-14T08:27:29.462Z,94607.09
2022-10-14T08:29:56.165Z,94595.03
2022-10-14T08:32:23.886Z,94606.44
2022-10-14T08:34:50.960Z,94580.44
2022-10-14T08:37:17.690Z,94582.84
2022-10-14T08:39:44.552Z,94578.16
2022-10-14T08:42:29.602Z,94572.88
2022-10-14T08:45:15.551Z,94595.63
2022-10-14T08:47:46.019Z,94597.28
2022-10-14T08:50:37.774Z,94623.44
2022-10-14T08:53:14.040Z,94587.34
2022-10-14T08:55:56.414Z,94582.94
2022-10-14T08:58:29.118Z,94544.59
2022-10-14T09:00:56.676Z,94581.78
2022-10-14T09:03:27.255Z,94629.41
2022-10-14T09:06:01.977Z,94602.09
2022-10-14T09:08:34.637Z,94592.47
2022-10-14T09:11:01.492Z,94558.16
2022-10-14T09:13:32.764Z,94561.81
2022-10-14T09:16:19.858Z,94621.56
2022-10-14T09:18:55.610Z,94549.28
2022-10-14T09:21:34.051Z,94598.09
2022-10-14T09:24:20.674Z,94617.47
2022-10-14T09:29:32.098Z,94559.06
2022-10-14T09:32:04.635Z,94592.59
2022-10-14T09:34:46.688Z,94584.84
2022-10-14T09:37:25.579Z,94616.50
2022-10-14T09:39:53.968Z,94558.88
2022-10-14T09:42:24.471Z,94575.81
2022-10-14T09:47:32.293Z,94574.16
2022-10-14T09:50:00.998Z,94529.47
2022-10-14T09:52:34.237Z,94549.53
2022-10-14T09:55:01.707Z,94584.03
2022-10-14T09:57:28.594Z,94565.66
2022-10-14T09:59:57.189Z,94539.53
2022-10-14T10:02:26.640Z,94522.38
2022-10-14T10:04:55.020Z,94588.50
2022-10-14T10:07:34.957Z,94559.28
2022-10-14T10:10:09.797Z,94542.78
2022-10-14T10:12:36.652Z,94541.59
2022-10-14T10:15:06.787Z,94540.34
2022-10-14T10:17:39.059Z,94528.94
2022-10-14T10:20:33.420Z,94529.34
2022-10-14T10:23:23.047Z,94519.09
2022-10-14T10:25:50.201Z,94541.56
2022-10-14T10:28:28.171Z,94525.47
2022-10-14T10:30:57.843Z,94567.69
2022-10-14T10:34:15.201Z,94533.22
2022-10-14T10:36:51.246Z,94575.84
2022-10-14T10:39:43.508Z,94535.78
2022-10-14T10:42:27.009Z,94561.09
2022-10-14T10:45:03.917Z,94532.91
2022-10-14T10:47:37.217Z,94556.41
2022-10-14T10:50:30.737Z,94508.06
2022-10-14T10:53:08.764Z,94552.00
2022-10-14T10:55:54.237Z,94483.63
2022-10-14T10:58:35.591Z,94550.97
2022-10-14T11:01:14.654Z,94488.09
2022-10-14T11:03:56.916Z,94520.94
2022-10-14T11:06:57.218Z,94548.13
2022-10-14T11:10:08.091Z,94505.25
2022-10-14T11:12:50.584Z,94549.34
2022-10-14T11:15:33.494Z,94484.81
2022-10-14T11:18:15.162Z,94497.03
2022-10-14T11:21:22.115Z,94539.53
2022-10-14T11:23:59.742Z,94527.31
2022-10-14T11:29:23.573Z,94534.13
2022-10-14T11:32:18.246Z,94530.91
2022-10-14T11:34:48.109Z,94537.00
2022-10-14T11:37:52.110Z,94528.88
2022-10-14T11:40:50.702Z,94504.41
2022-10-14T11:43:39.720Z,94517.47
2022-10-14T11:46:11.576Z,94469.75
2022-10-14T11:48:56.891Z,94490.75
2022-10-14T11:51:41.314Z,94431.59
2022-10-14T11:54:15.061Z,94502.38
2022-10-14T11:57:00.215Z,94509.31
2022-10-14T11:59:54.643Z,94505.25
2022-10-14T12:02:45.555Z,94495.88
2022-10-14T12:05:22.271Z,94466.06
2022-10-14T12:08:07.918Z,94456.66
2022-10-14T12:10:46.860Z,94508.91
2022-10-14T12:13:19.254Z,94434.88
2022-10-14T12:15:50.675Z,94468.94
2022-10-14T12:18:19.414Z,94467.31
2022-10-14T12:20:57.971Z,94484.22
2022-10-14T12:23:32.359Z,94484.41
2022-10-14T12:26:07.269Z,94452.59
2022-10-14T12:28:34.985Z,94426.69
2022-10-14T12:31:21.305Z,94477.06
2022-10-14T12:34:13.824Z,94442.41
2022-10-14T12:36:43.238Z,94469.13
2022-10-14T12:39:22.611Z,94462.81
2022-10-14T12:42:02.375Z,94468.13
2022-10-14T12:44:48.795Z,94441.56
2022-10-14T12:47:31.091Z,94399.16
2022-10-14T12:50:03.530Z,94419.97
2022-10-14T12:52:33.036Z,94416.69
2022-10-14T12:55:05.186Z,94420.16
2022-10-14T12:57:36.207Z,94401.25
2022-10-14T13:00:27.112Z,94420.81
2022-10-14T13:02:55.783Z,94398.16
2022-10-14T13:05:38.986Z,94373.28
2022-10-14T13:08:20.782Z,94446.06
2022-10-14T13:11:11.626Z,94397.13
2022-10-14T13:13:41.964Z,94433.41
2022-10-14T13:16:31.341Z,94388.53
2022-10-14T13:18:59.844Z,94362.25
2022-10-14T13:21:34.214Z,94384.50
2022-10-14T13:24:08.066Z,94420.34
2022-10-14T13:26:53.209Z,94421.97
2022-10-14T13:29:30.425Z,94384.66
2022-10-14T13:32:32.548Z,94429.47
2022-10-14T13:34:59.415Z,94436.63
2022-10-14T13:37:33.482Z,94435.44
2022-10-14T13:40:18.073Z,94435.06
2022-10-14T13:42:46.577Z,94397.56
2022-10-14T13:45:22.181Z,94371.47
2022-10-14T13:47:49.530Z,94410.72
2022-10-14T13:50:19.824Z,94420.03
2022-10-14T13:52:53.726Z,94386.63
2022-10-14T13:55:22.409Z,94386.38
2022-10-14T13:58:15.069Z,94427.38
2022-10-14T14:00:58.152Z,94428.31
2022-10-14T14:03:29.208Z,94390.59
2022-10-14T14:05:58.080Z,94372.50
2022-10-14T14:08:41.129Z,94391.25
2022-10-14T14:11:16.808Z,94397.91
2022-10-14T14:14:00.681Z,94428.53
2022-10-14T14:16:31.628Z,94430.22
2022-10-14T14:19:14.104Z,94427.56
2022-10-14T14:21:40.902Z,94440.44
2022-10-14T14:24:16.731Z,94404.72
2022-10-14T14:26:44.187Z,94410.09
2022-10-14T14:29:21.541Z,94395.09
2022-10-14T14:32:05.441Z,94402.41
2022-10-14T14:34:34.991Z,94375.84
2022-10-14T14:37:10.969Z,94388.63
2022-10-14T14:39:58.078Z,94401.91
2022-10-14T14:42:26.473Z,94364.84
2022-10-14T14:44:55.853Z,94394.97
2022-10-14T14:47:22.823Z,94352.59
2022-10-14T14:49:57.444Z,94350.56
2022-10-14T14:52:45.277Z,94386.41
2022-10-14T14:55:49.643Z,94410.03
2022-10-14T14:58:43.195Z,94406.78
2022-10-14T15:01:22.073Z,94384.81
2022-10-14T15:04:12.258Z,94352.84
2022-10-14T15:06:51.679Z,94370.41
2022-10-14T15:09:26.403Z,94395.50
2022-10-14T15:11:55.086Z,94421.16
2022-10-14T15:14:49.602Z,94403.84
2022-10-14T15:17:44.970Z,94393.84
2022-10-14T15:20:11.646Z,94417.91
2022-10-14T15:22:40.130Z,94410.56
2022-10-14T15:25:20.495Z,94408.09
2022-10-14T15:27:49.039Z,94361.25
2022-10-14T15:30:21.149Z,94357.16
2022-10-14T15:32:48.849Z,94391.78
2022-10-14T15:35:18.001Z,94381.78
2022-10-14T15:37:44.849Z,94389.75
2022-10-14T15:40:18.957Z,94369.75
2022-10-14T15:42:46.774Z,94365.69
2022-10-14T15:45:14.210Z,94346.13
2022-10-14T15:47:41.036Z,94353.91
2022-10-14T15:50:19.135Z,94398.75
2022-10-14T15:52:46.044Z,94352.69
2022-10-14T15:55:20.318Z,94353.94
2022-10-14T15:57:49.978Z,94343.53
2022-10-14T16:00:21.967Z,94354.94
2022-10-14T16:02:50.697Z,94374.28
2022-10-14T16:05:20.170Z,94383.06
2022-10-14T16:07:48.551Z,94369.19
2022-10-14T16:10:17.916Z,94354.56
2022-10-14T16:12:44.772Z,94374.31
2022-10-14T16:15:22.097Z,94421.81
2022-10-14T16:17:52.095Z,94357.19
2022-10-14T16:20:21.663Z,94337.22
2022-10-14T16:22:48.724Z,94338.00
2022-10-14T16:25:31.125Z,94302.38
2022-10-14T16:27:58.673Z,94335.16
2022-10-14T16:30:25.720Z,94317.66
2022-10-14T16:32:52.398Z,94322.13
2022-10-14T16:35:19.159Z,94340.84
2022-10-14T16:37:46.324Z,94289.97
2022-10-14T16:40:13.208Z,94307.88
2022-10-14T16:42:39.964Z,94303.81
2022-10-14T16:45:07.234Z,94338.84
2022-10-14T16:47:35.092Z,94344.97
2022-10-14T16:50:01.867Z,94304.63
2022-10-14T16:52:28.615Z,94321.31
2022-10-14T16:54:55.344Z,94299.13
2022-10-14T16:57:22.210Z,94312.38
2022-10-14T16:59:56.252Z,94326.22
2022-10-14T17:02:31.884Z,94297.50
2022-10-14T17:04:58.583Z,94331.13
2022-10-14T17:07:26.040Z,94355.56
2022-10-14T17:09:52.771Z,94306.03
2022-10-14T17:12:19.500Z,94333.94
2022-10-14T17:14:46.457Z,94317.66
2022-10-14T17:17:13.286Z,94345.78
2022-10-14T17:19:40.157Z,94306.44
2022-10-14T17:22:06.862Z,94337.63
2022-10-14T17:24:33.601Z,94371.25
2022-10-14T17:27:04.687Z,94343.34
2022-10-14T17:29:36.005Z,94377.97
2022-10-14T17:32:02.758Z,94355.53
2022-10-14T17:34:29.776Z,94306.84
2022-10-14T17:36:59.866Z,94331.31
2022-10-14T17:39:28.506Z,94335.19
2022-10-14T17:41:58.553Z,94317.97
2022-10-14T17:44:25.378Z,94362.03
2022-10-14T17:46:52.093Z,94335.56
2022-10-14T17:49:23.000Z,94350.22
2022-10-14T17:51:49.751Z,94333.53
2022-10-14T17:54:16.459Z,94334.75
2022-10-14T17:56:43.252Z,94299.66
2022-10-14T17:59:17.946Z,94292.31
2022-10-14T18:04:32.902Z,94305.78
2022-10-14T18:06:59.874Z,94322.72
2022-10-14T18:09:26.586Z,94266.25
2022-10-14T18:12:08.308Z,94281.31
2022-10-14T18:14:43.285Z,94283.34
2022-10-14T18:17:12.867Z,94298.44
2022-10-14T18:19:46.080Z,94314.13
2022-10-14T18:22:16.274Z,94313.72
2022-10-14T18:24:44.090Z,94304.94
2022-10-14T18:27:22.008Z,94348.19
2022-10-14T18:29:49.009Z,94326.75
2022-10-14T18:32:15.784Z,94303.28
2022-10-14T18:34:42.544Z,94316.16
2022-10-14T18:37:50.407Z,94341.66
2022-10-14T18:40:18.491Z,94263.75
2022-10-14T18:42:45.270Z,94282.13
2022-10-14T18:45:11.948Z,94320.03
2022-10-14T18:47:38.655Z,94291.72
2022-10-14T18:50:05.725Z,94280.28
2022-10-14T18:52:33.227Z,94258.09
2022-10-14T18:54:59.940Z,94249.94
2022-10-14T18:57:27.495Z,94312.75
2022-10-14T18:59:54.187Z,94252.41
2022-10-14T19:02:21.219Z,94251.59
2022-10-14T19:04:48.124Z,94241.03
2022-10-14T19:07:15.197Z,94253.66
2022-10-14T19:09:41.866Z,94248.38
2022-10-14T19:12:28.697Z,94251.19
2022-10-14T19:14:55.469Z,94223.88
2022-10-14T19:17:22.155Z,94233.66
2022-10-14T19:19:49.948Z,94253.44
2022-10-14T19:22:16.722Z,94230.22
2022-10-14T19:24:43.427Z,94213.31
2022-10-14T19:27:11.218Z,94239.78
2022-10-14T19:29:37.895Z,94247.53
2022-10-14T19:32:10.896Z,94267.47
2022-10-14T19:34:37.626Z,94249.56
2022-10-14T19:37:04.327Z,94209.25
2022-10-14T19:39:31.094Z,94212.88
2022-10-14T19:41:57.971Z,94244.09
2022-10-14T19:44:24.718Z,94241.44
2022-10-14T19:46:51.461Z,94233.69
2022-10-14T19:49:18.285Z,94230.84
2022-10-14T19:51:45.038Z,94224.13
2022-10-14T19:54:12.924Z,94250.78
2022-10-14T19:56:39.896Z,94173.81
2022-10-14T19:59:06.769Z,94206.03
2022-10-14T20:01:33.685Z,94201.13
2022-10-14T20:04:07.156Z,94245.72
2022-10-14T20:06:35.888Z,94201.50
2022-10-14T20:09:02.897Z,94218.25
2022-10-14T20:11:29.711Z,94171.56
2022-10-14T20:13:58.564Z,94203.56
2022-10-14T20:16:27.157Z,94210.50
2022-10-14T20:18:53.851Z,94189.31
2022-10-14T20:21:20.539Z,94206.78
2022-10-14T20:23:47.347Z,94172.41
2022-10-14T20:26:20.121Z,94190.94
2022-10-14T20:28:47.540Z,94157.34
2022-10-14T20:31:17.078Z,94220.06
2022-10-14T20:33:54.820Z,94227.19
2022-10-14T20:36:22.044Z,94216.63
2022-10-14T20:38:50.016Z,94198.47
2022-10-14T20:41:22.905Z,94162.03
2022-10-14T20:43:50.567Z,94172.25
2022-10-14T20:46:19.010Z,94194.00
2022-10-14T20:48:46.036Z,94184.84
2022-10-14T20:51:15.916Z,94224.34
2022-10-14T20:53:42.748Z,94171.22
2022-10-14T20:56:11.318Z,94194.22
2022-10-14T20:58:38.246Z,94188.94
2022-10-14T21:01:09.205Z,94218.66
2022-10-14T21:03:36.359Z,94179.75
2022-10-14T21:06:19.818Z,94181.59
2022-10-14T21:08:47.860Z,94185.63
2022-10-14T21:11:16.019Z,94155.91
2022-10-14T21:13:51.085Z,94166.28
2022-10-14T21:16:26.180Z,94140.03
2022-10-14T21:18:57.943Z,94168.28
2022-10-14T21:21:26.803Z,94154.91
2022-10-14T21:23:53.928Z,94167.66
2022-10-14T21:26:20.990Z,94174.63
2022-10-14T21:28:47.920Z,94156.28
2022-10-14T21:31:17.528Z,94149.34
2022-10-14T21:33:46.298Z,94183.22
2022-10-14T21:36:14.786Z,94187.66
2022-10-14T21:38:41.630Z,94145.31
2022-10-14T21:41:08.595Z,94152.03
2022-10-14T21:43:37.220Z,94148.97
2022-10-14T21:46:07.318Z,94140.69
2022-10-14T21:48:34.025Z,94140.28
2022-10-14T21:51:05.451Z,94167.75
2022-10-14T21:53:32.751Z,94160.03
2022-10-14T21:55:59.781Z,94098.56
2022-10-14T21:58:27.057Z,94119.09
2022-10-14T22:01:11.083Z,94085.13
2022-10-14T22:03:39.228Z,94123.56
2022-10-14T22:06:09.595Z,94156.75
2022-10-14T22:08:39.033Z,94108.75
2022-10-14T22:11:06.595Z,94141.13
2022-10-14T22:13:34.540Z,94141.31
2022-10-14T22:16:01.265Z,94083.72
2022-10-14T22:18:27.995Z,94126.66
2022-10-14T22:21:05.132Z,94113.22
2022-10-14T22:23:32.903Z,94109.16
2022-10-14T22:26:03.747Z,94119.72
2022-10-14T22:28:31.312Z,94097.56
2022-10-14T22:31:09.014Z,94099.78
2022-10-14T22:33:37.149Z,94093.06
2022-10-14T22:36:11.558Z,94091.84
2022-10-14T22:38:39.642Z,94085.56
2022-10-14T22:41:07.253Z,94071.72
2022-10-14T22:43:34.530Z,94079.25
2022-10-14T22:46:05.392Z,94074.56
2022-10-14T22:48:32.487Z,94082.69
2022-10-14T22:51:05.597Z,94060.94
2022-10-14T22:53:32.901Z,94097.78
2022-10-14T22:55:59.956Z,94072.94
2022-10-14T22:58:27.132Z,94076.81
2022-10-14T23:00:53.979Z,94084.75
2022-10-14T23:03:20.886Z,94063.59
2022-10-14T23:05:48.012Z,94037.16
2022-10-14T23:08:15.308Z,94076.81
2022-10-14T23:10:51.878Z,94121.19
2022-10-14T23:13:18.673Z,94088.19
2022-10-14T23:15:57.844Z,94077.66
2022-10-14T23:18:25.730Z,94080.47
2022-10-14T23:20:52.839Z,94053.03
2022-10-14T23:23:19.783Z,94063.59
2022-10-14T23:25:46.751Z,94053.22
2022-10-14T23:28:13.765Z,94073.94
2022-10-14T23:30:40.639Z,94070.91
2022-10-14T23:33:10.938Z,94031.69
2022-10-14T23:35:39.067Z,94060.13
2022-10-14T23:38:05.852Z,94052.78
2022-10-14T23:40:32.679Z,94049.38
2022-10-14T23:42:59.348Z,94094.06
2022-10-14T23:45:26.078Z,94016.81
2022-10-14T23:47:52.902Z,94101.63
2022-10-14T23:50:19.639Z,94081.69
2022-10-14T23:52:46.475Z,94020.47
2022-10-14T23:55:14.009Z,94080.25
2022-10-14T23:57:40.795Z,94045.69
